sensor_id;sensor_type;location;lat;lon;timestamp;pressure;altitude;pressure_sealevel;temperature;humidity
40155;BME280;25875;48.202;16.334;2023-02-28T00:00:10;100149.56;;;1.70;49.62
40155;BME280;25875;48.202;16.334;2023-02-28T00:02:39;100139.13;;;1.70;49.44
40155;BME280;25875;48.202;16.334;2023-02-28T00:05:07;100137.38;;;1.67;49.59
40155;BME280;25875;48.202;16.334;2023-02-28T00:07:35;100021.22;;;0.81;49.54
40155;BME280;25875;48.202;16.334;2023-02-28T00:10:02;100034.19;;;1.01;49.60
40155;BME280;25875;48.202;16.334;2023-02-28T00:12:30;99988.31;;;0.54;49.70
40155;BME280;25875;48.202;16.334;2023-02-28T00:14:57;100133.91;;;1.59;49.52
40155;BME280;25875;48.202;16.334;2023-02-28T00:17:28;100139.16;;;1.56;49.76
40155;BME280;25875;48.202;16.334;2023-02-28T00:19:54;100137.44;;;1.55;49.71
40155;BME280;25875;48.202;16.334;2023-02-28T00:22:22;100140.06;;;1.52;49.63
40155;BME280;25875;48.202;16.334;2023-02-28T00:24:49;100138.31;;;1.51;49.70
40155;BME280;25875;48.202;16.334;2023-02-28T00:27:16;100139.19;;;1.51;49.83
40155;BME280;25875;48.202;16.334;2023-02-28T00:29:42;100145.31;;;1.50;49.69
40155;BME280;25875;48.202;16.334;2023-02-28T00:32:09;100139.22;;;1.48;49.77
40155;BME280;25875;48.202;16.334;2023-02-28T00:34:37;100147.06;;;1.48;49.77
40155;BME280;25875;48.202;16.334;2023-02-28T00:37:05;100146.19;;;1.49;49.83
40155;BME280;25875;48.202;16.334;2023-02-28T00:39:34;100144.44;;;1.50;49.75
40155;BME280;25875;48.202;16.334;2023-02-28T00:42:01;100145.31;;;1.50;49.68
40155;BME280;25875;48.202;16.334;2023-02-28T00:44:28;100146.19;;;1.48;49.72
40155;BME280;25875;48.202;16.334;2023-02-28T00:46:55;100148.78;;;1.48;49.70
40155;BME280;25875;48.202;16.334;2023-02-28T00:49:23;100146.19;;;1.48;49.62
40155;BME280;25875;48.202;16.334;2023-02-28T00:51:52;100147.06;;;1.47;49.70
40155;BME280;25875;48.202;16.334;2023-02-28T00:54:19;100149.69;;;1.45;49.43
40155;BME280;25875;48.202;16.334;2023-02-28T00:56:46;100146.19;;;1.45;49.62
40155;BME280;25875;48.202;16.334;2023-02-28T00:59:13;100143.59;;;1.45;49.59
40155;BME280;25875;48.202;16.334;2023-02-28T01:01:41;100142.72;;;1.43;49.64
40155;BME280;25875;48.202;16.334;2023-02-28T01:04:09;100148.84;;;1.40;49.71
40155;BME280;25875;48.202;16.334;2023-02-28T01:06:36;100147.97;;;1.38;49.81
40155;BME280;25875;48.202;16.334;2023-02-28T01:09:06;99880.88;;;-0.18;49.44
40155;BME280;25875;48.202;16.334;2023-02-28T01:11:34;100027.41;;;0.66;49.63
40155;BME280;25875;48.202;16.334;2023-02-28T01:14:01;100065.56;;;0.87;49.70
40155;BME280;25875;48.202;16.334;2023-02-28T01:16:29;100159.34;;;1.31;49.94
40155;BME280;25875;48.202;16.334;2023-02-28T01:18:57;100135.84;;;1.28;49.81
40155;BME280;25875;48.202;16.334;2023-02-28T01:21:26;100146.31;;;1.25;49.74
40155;BME280;25875;48.202;16.334;2023-02-28T01:23:56;100150.66;;;1.24;49.80
40155;BME280;25875;48.202;16.334;2023-02-28T01:26:25;100003.19;;;0.35;49.79
40155;BME280;25875;48.202;16.334;2023-02-28T01:28:52;100151.56;;;1.20;49.88
40155;BME280;25875;48.202;16.334;2023-02-28T01:31:20;100049.19;;;0.56;49.76
40155;BME280;25875;48.202;16.334;2023-02-28T01:33:47;100161.16;;;1.15;49.88
40155;BME280;25875;48.202;16.334;2023-02-28T01:36:16;100159.41;;;1.14;49.88
40155;BME280;25875;48.202;16.334;2023-02-28T01:38:44;99467.06;;;-2.85;49.85
40155;BME280;25875;48.202;16.334;2023-02-28T01:41:16;100154.19;;;1.14;50.22
40155;BME280;25875;48.202;16.334;2023-02-28T01:43:56;100120.38;;;0.88;50.50
40155;BME280;25875;48.202;16.334;2023-02-28T01:46:24;100156.81;;;1.13;49.81
40155;BME280;25875;48.202;16.334;2023-02-28T01:48:54;100149.84;;;1.13;49.95
40155;BME280;25875;48.202;16.334;2023-02-28T01:51:27;100175.94;;;1.18;50.17
40155;BME280;25875;48.202;16.334;2023-02-28T01:53:59;100155.03;;;1.19;49.96
40155;BME280;25875;48.202;16.334;2023-02-28T01:56:29;100005.78;;;0.34;49.96
40155;BME280;25875;48.202;16.334;2023-02-28T01:58:58;100161.09;;;1.24;49.78
40155;BME280;25875;48.202;16.334;2023-02-28T02:01:27;100160.22;;;1.25;49.73
40155;BME280;25875;48.202;16.334;2023-02-28T02:03:56;100050.91;;;0.60;49.86
40155;BME280;25875;48.202;16.334;2023-02-28T02:06:26;99822.00;;;-0.76;49.70
40155;BME280;25875;48.202;16.334;2023-02-28T02:08:54;100155.03;;;1.22;49.82
40155;BME280;25875;48.202;16.334;2023-02-28T02:11:22;100149.81;;;1.21;49.93
40155;BME280;25875;48.202;16.334;2023-02-28T02:14:03;100162.88;;;1.19;50.35
40155;BME280;25875;48.202;16.334;2023-02-28T02:16:46;100113.41;;;0.90;50.30
40155;BME280;25875;48.202;16.334;2023-02-28T02:19:35;100157.66;;;1.15;50.49
40155;BME280;25875;48.202;16.334;2023-02-28T02:22:50;100162.03;;;1.13;50.72
40155;BME280;25875;48.202;16.334;2023-02-28T02:25:29;100180.31;;;1.08;50.36
40155;BME280;25875;48.202;16.334;2023-02-28T02:28:21;100117.78;;;0.85;50.72
40155;BME280;25875;48.202;16.334;2023-02-28T02:31:11;100157.69;;;1.07;50.58
40155;BME280;25875;48.202;16.334;2023-02-28T02:34:13;100161.19;;;1.05;50.65
40155;BME280;25875;48.202;16.334;2023-02-28T02:36:49;100172.53;;;1.01;50.22
40155;BME280;25875;48.202;16.334;2023-02-28T02:39:22;100160.34;;;1.03;50.34
40155;BME280;25875;48.202;16.334;2023-02-28T02:41:59;100157.72;;;1.01;50.50
40155;BME280;25875;48.202;16.334;2023-02-28T02:44:30;100163.81;;;1.02;50.42
40155;BME280;25875;48.202;16.334;2023-02-28T02:47:02;100089.16;;;0.61;50.29
40155;BME280;25875;48.202;16.334;2023-02-28T02:49:36;100154.25;;;1.02;50.52
40155;BME280;25875;48.202;16.334;2023-02-28T02:52:06;100052.69;;;0.41;50.41
40155;BME280;25875;48.202;16.334;2023-02-28T02:54:36;100217.81;;;0.77;50.36
40155;BME280;25875;48.202;16.334;2023-02-28T02:57:08;100112.56;;;0.78;50.40
40155;BME280;25875;48.202;16.334;2023-02-28T02:59:38;100149.88;;;1.03;50.21
40155;BME280;25875;48.202;16.334;2023-02-28T03:02:09;100155.13;;;1.00;50.50
40155;BME280;25875;48.202;16.334;2023-02-28T03:04:42;100149.91;;;0.97;50.60
40155;BME280;25875;48.202;16.334;2023-02-28T03:07:11;100110.88;;;0.66;50.66
40155;BME280;25875;48.202;16.334;2023-02-28T03:09:38;100162.09;;;0.93;50.83
40155;BME280;25875;48.202;16.334;2023-02-28T03:12:09;100061.41;;;0.36;50.76
40155;BME280;25875;48.202;16.334;2023-02-28T03:14:46;100005.88;;;0.06;50.81
40155;BME280;25875;48.202;16.334;2023-02-28T03:17:27;100155.16;;;0.93;50.75
40155;BME280;25875;48.202;16.334;2023-02-28T03:20:06;100140.38;;;0.85;50.88
40155;BME280;25875;48.202;16.334;2023-02-28T03:22:45;100119.56;;;0.71;51.18
40155;BME280;25875;48.202;16.334;2023-02-28T03:25:21;99980.72;;;-0.10;50.97
40155;BME280;25875;48.202;16.334;2023-02-28T03:28:00;100154.28;;;0.90;50.99
40155;BME280;25875;48.202;16.334;2023-02-28T03:30:34;100104.81;;;0.63;51.14
40155;BME280;25875;48.202;16.334;2023-02-28T03:33:06;100155.19;;;0.83;51.10
40155;BME280;25875;48.202;16.334;2023-02-28T03:35:39;100150.84;;;0.82;51.21
40155;BME280;25875;48.202;16.334;2023-02-28T03:38:10;100103.09;;;0.55;51.10
40155;BME280;25875;48.202;16.334;2023-02-28T03:40:43;100063.16;;;0.31;51.26
40155;BME280;25875;48.202;16.334;2023-02-28T03:43:18;99969.50;;;-0.49;50.98
40155;BME280;25875;48.202;16.334;2023-02-28T03:45:47;100044.06;;;0.16;51.06
40155;BME280;25875;48.202;16.334;2023-02-28T03:48:20;99974.66;;;-0.26;51.50
40155;BME280;25875;48.202;16.334;2023-02-28T03:50:53;100149.13;;;0.76;51.38
40155;BME280;25875;48.202;16.334;2023-02-28T03:53:25;100091.81;;;0.44;51.44
40155;BME280;25875;48.202;16.334;2023-02-28T03:55:55;100155.22;;;0.71;51.32
40155;BME280;25875;48.202;16.334;2023-02-28T03:58:28;100055.38;;;0.08;51.55
40155;BME280;25875;48.202;16.334;2023-02-28T04:01:01;100156.97;;;0.66;51.61
40155;BME280;25875;48.202;16.334;2023-02-28T04:03:34;100146.53;;;0.64;51.39
40155;BME280;25875;48.202;16.334;2023-02-28T04:06:04;100153.50;;;0.62;51.65
40155;BME280;25875;48.202;16.334;2023-02-28T04:08:32;100150.88;;;0.64;51.64
40155;BME280;25875;48.202;16.334;2023-02-28T04:11:02;100142.19;;;0.65;51.54
40155;BME280;25875;48.202;16.334;2023-02-28T04:13:31;100035.41;;;0.02;51.63
40155;BME280;25875;48.202;16.334;2023-02-28T04:15:58;100148.28;;;0.65;51.68
40155;BME280;25875;48.202;16.334;2023-02-28T04:18:24;100148.28;;;0.65;51.61
40155;BME280;25875;48.202;16.334;2023-02-28T04:20:51;100150.00;;;0.66;51.63
40155;BME280;25875;48.202;16.334;2023-02-28T04:23:20;100055.41;;;0.03;51.75
40155;BME280;25875;48.202;16.334;2023-02-28T04:25:47;100156.09;;;0.65;51.70
40155;BME280;25875;48.202;16.334;2023-02-28T04:28:14;100113.56;;;0.39;51.72
40155;BME280;25875;48.202;16.334;2023-02-28T04:30:42;100151.75;;;0.63;51.88
40155;BME280;25875;48.202;16.334;2023-02-28T04:33:09;100156.97;;;0.61;51.92
40155;BME280;25875;48.202;16.334;2023-02-28T04:35:38;100164.81;;;0.61;51.88
40155;BME280;25875;48.202;16.334;2023-02-28T04:38:07;100115.31;;;0.35;51.92
40155;BME280;25875;48.202;16.334;2023-02-28T04:40:35;100161.31;;;0.59;51.98
40155;BME280;25875;48.202;16.334;2023-02-28T04:43:02;100163.06;;;0.60;51.97
40155;BME280;25875;48.202;16.334;2023-02-28T04:45:30;100012.03;;;-0.39;51.83
40155;BME280;25875;48.202;16.334;2023-02-28T04:48:00;100158.72;;;0.62;51.90
40155;BME280;25875;48.202;16.334;2023-02-28T04:50:26;100163.94;;;0.59;51.99
40155;BME280;25875;48.202;16.334;2023-02-28T04:52:53;100160.47;;;0.60;51.85
40155;BME280;25875;48.202;16.334;2023-02-28T04:55:20;100153.50;;;0.60;51.84
40155;BME280;25875;48.202;16.334;2023-02-28T04:57:48;100152.63;;;0.60;52.20
40155;BME280;25875;48.202;16.334;2023-02-28T05:00:15;100074.50;;;0.13;52.14
40155;BME280;25875;48.202;16.334;2023-02-28T05:02:42;100121.38;;;0.33;52.17
40155;BME280;25875;48.202;16.334;2023-02-28T05:05:09;100155.25;;;0.57;52.10
40155;BME280;25875;48.202;16.334;2023-02-28T05:07:37;100156.97;;;0.59;52.01
40155;BME280;25875;48.202;16.334;2023-02-28T05:10:04;100167.41;;;0.61;52.15
40155;BME280;25875;48.202;16.334;2023-02-28T05:12:31;100157.84;;;0.60;52.32
40155;BME280;25875;48.202;16.334;2023-02-28T05:14:59;100156.97;;;0.59;52.16
40155;BME280;25875;48.202;16.334;2023-02-28T05:17:27;100161.34;;;0.57;52.52
40155;BME280;25875;48.202;16.334;2023-02-28T05:19:54;100161.34;;;0.56;52.42
40155;BME280;25875;48.202;16.334;2023-02-28T05:22:21;100157.84;;;0.55;52.39
40155;BME280;25875;48.202;16.334;2023-02-28T05:24:47;100159.59;;;0.55;52.43
40155;BME280;25875;48.202;16.334;2023-02-28T05:27:16;100131.81;;;0.39;52.73
40155;BME280;25875;48.202;16.334;2023-02-28T05:29:43;99884.47;;;-1.11;52.62
40155;BME280;25875;48.202;16.334;2023-02-28T05:32:12;100157.88;;;0.51;52.74
40155;BME280;25875;48.202;16.334;2023-02-28T05:34:39;100160.47;;;0.54;52.64
40155;BME280;25875;48.202;16.334;2023-02-28T05:37:06;100163.09;;;0.52;52.67
40155;BME280;25875;48.202;16.334;2023-02-28T05:39:33;100167.44;;;0.49;52.76
40155;BME280;25875;48.202;16.334;2023-02-28T05:42:00;100171.78;;;0.48;53.04
40155;BME280;25875;48.202;16.334;2023-02-28T05:44:27;100172.66;;;0.49;52.97
40155;BME280;25875;48.202;16.334;2023-02-28T05:46:54;100181.34;;;0.48;52.96
40155;BME280;25875;48.202;16.334;2023-02-28T05:49:22;100183.97;;;0.46;53.00
40155;BME280;25875;48.202;16.334;2023-02-28T05:51:49;100148.34;;;0.21;53.09
40155;BME280;25875;48.202;16.334;2023-02-28T05:54:16;100151.81;;;0.20;53.25
40155;BME280;25875;48.202;16.334;2023-02-28T05:56:43;100195.25;;;0.47;53.39
40155;BME280;25875;48.202;16.334;2023-02-28T05:59:11;100199.59;;;0.48;53.27
40155;BME280;25875;48.202;16.334;2023-02-28T06:01:39;100187.44;;;0.41;53.35
40155;BME280;25875;48.202;16.334;2023-02-28T06:04:08;100199.59;;;0.49;53.32
40155;BME280;25875;48.202;16.334;2023-02-28T06:06:36;100200.47;;;0.50;53.44
40155;BME280;25875;48.202;16.334;2023-02-28T06:09:04;100202.22;;;0.51;53.77
40155;BME280;25875;48.202;16.334;2023-02-28T06:11:31;100188.28;;;0.50;53.58
40155;BME280;25875;48.202;16.334;2023-02-28T06:13:59;100084.94;;;-0.13;53.60
40155;BME280;25875;48.202;16.334;2023-02-28T06:16:27;100192.66;;;0.51;53.77
40155;BME280;25875;48.202;16.334;2023-02-28T06:18:54;100152.69;;;0.23;53.91
40155;BME280;25875;48.202;16.334;2023-02-28T06:21:22;99963.38;;;-1.10;53.97
40155;BME280;25875;48.202;16.334;2023-02-28T06:23:51;100172.69;;;0.09;54.39
40155;BME280;25875;48.202;16.334;2023-02-28T06:26:18;100214.38;;;0.27;54.31
40155;BME280;25875;48.202;16.334;2023-02-28T06:28:45;100162.25;;;-0.03;54.31
40155;BME280;25875;48.202;16.334;2023-02-28T06:31:13;100211.78;;;0.20;54.51
40155;BME280;25875;48.202;16.334;2023-02-28T06:33:41;100202.22;;;0.13;54.55
40155;BME280;25875;48.202;16.334;2023-02-28T06:36:11;100211.78;;;0.24;54.93
40155;BME280;25875;48.202;16.334;2023-02-28T06:38:39;100190.06;;;0.09;54.65
40155;BME280;25875;48.202;16.334;2023-02-28T06:41:08;100230.03;;;0.31;54.57
40155;BME280;25875;48.202;16.334;2023-02-28T06:43:38;100223.09;;;0.28;54.56
40155;BME280;25875;48.202;16.334;2023-02-28T06:46:08;100229.16;;;0.30;54.54
40155;BME280;25875;48.202;16.334;2023-02-28T06:48:35;100233.50;;;0.29;54.45
40155;BME280;25875;48.202;16.334;2023-02-28T06:51:04;100102.31;;;-0.41;54.45
40155;BME280;25875;48.202;16.334;2023-02-28T06:53:32;100230.03;;;0.32;54.77
40155;BME280;25875;48.202;16.334;2023-02-28T06:55:58;100235.25;;;0.37;54.62
40155;BME280;25875;48.202;16.334;2023-02-28T06:58:27;100235.25;;;0.38;54.44
40155;BME280;25875;48.202;16.334;2023-02-28T07:00:54;100235.25;;;0.37;54.81
40155;BME280;25875;48.202;16.334;2023-02-28T07:03:21;100235.25;;;0.34;54.47
40155;BME280;25875;48.202;16.334;2023-02-28T07:05:48;100235.25;;;0.37;54.27
40155;BME280;25875;48.202;16.334;2023-02-28T07:08:16;100235.25;;;0.35;54.53
40155;BME280;25875;48.202;16.334;2023-02-28T07:10:43;100204.81;;;0.02;54.61
40155;BME280;25875;48.202;16.334;2023-02-28T07:13:11;100233.50;;;0.19;54.71
40155;BME280;25875;48.202;16.334;2023-02-28T07:15:39;99841.81;;;-2.13;54.79
40155;BME280;25875;48.202;16.334;2023-02-28T07:18:06;100236.13;;;0.20;54.81
40155;BME280;25875;48.202;16.334;2023-02-28T07:20:32;100212.66;;;0.07;54.83
40155;BME280;25875;48.202;16.334;2023-02-28T07:22:59;100232.63;;;0.24;54.87
40155;BME280;25875;48.202;16.334;2023-02-28T07:25:27;100234.38;;;0.22;55.06
40155;BME280;25875;48.202;16.334;2023-02-28T07:27:55;100230.03;;;0.26;54.79
40155;BME280;25875;48.202;16.334;2023-02-28T07:30:22;100242.19;;;0.27;54.73
40155;BME280;25875;48.202;16.334;2023-02-28T07:32:50;100238.72;;;0.23;54.95
40155;BME280;25875;48.202;16.334;2023-02-28T07:35:17;100250.03;;;0.24;54.79
40155;BME280;25875;48.202;16.334;2023-02-28T07:37:44;100243.06;;;0.27;54.79
40155;BME280;25875;48.202;16.334;2023-02-28T07:40:13;100244.81;;;0.33;54.75
40155;BME280;25875;48.202;16.334;2023-02-28T07:42:41;100258.72;;;0.41;54.68
40155;BME280;25875;48.202;16.334;2023-02-28T07:45:09;100248.28;;;0.47;54.72
40155;BME280;25875;48.202;16.334;2023-02-28T07:47:37;100250.91;;;0.53;54.33
40155;BME280;25875;48.202;16.334;2023-02-28T07:50:07;100212.66;;;0.39;54.62
40155;BME280;25875;48.202;16.334;2023-02-28T07:52:34;100292.63;;;0.64;54.27
40155;BME280;25875;48.202;16.334;2023-02-28T07:55:03;100259.59;;;0.61;54.31
40155;BME280;25875;48.202;16.334;2023-02-28T07:57:31;100229.16;;;0.39;54.30
40155;BME280;25875;48.202;16.334;2023-02-28T07:59:57;100261.31;;;0.64;54.24
40155;BME280;25875;48.202;16.334;2023-02-28T08:02:24;100232.63;;;0.47;54.22
40155;BME280;25875;48.202;16.334;2023-02-28T08:04:51;100265.66;;;0.76;54.14
40155;BME280;25875;48.202;16.334;2023-02-28T08:07:19;100270.88;;;0.83;54.20
40155;BME280;25875;48.202;16.334;2023-02-28T08:09:46;100252.63;;;0.80;54.05
40155;BME280;25875;48.202;16.334;2023-02-28T08:12:13;100263.03;;;0.96;53.89
40155;BME280;25875;48.202;16.334;2023-02-28T08:14:40;100263.88;;;0.98;53.72
40155;BME280;25875;48.202;16.334;2023-02-28T08:17:07;100260.41;;;1.03;54.11
40155;BME280;25875;48.202;16.334;2023-02-28T08:19:34;100258.66;;;1.05;53.93
40155;BME280;25875;48.202;16.334;2023-02-28T08:22:01;100263.00;;;1.11;53.78
40155;BME280;25875;48.202;16.334;2023-02-28T08:24:29;100261.25;;;1.14;53.61
40155;BME280;25875;48.202;16.334;2023-02-28T08:26:56;100256.88;;;1.19;53.63
40155;BME280;25875;48.202;16.334;2023-02-28T08:29:23;100262.94;;;1.29;53.62
40155;BME280;25875;48.202;16.334;2023-02-28T08:31:50;100262.06;;;1.33;53.38
40155;BME280;25875;48.202;16.334;2023-02-28T08:34:17;100261.16;;;1.40;53.04
40155;BME280;25875;48.202;16.334;2023-02-28T08:36:44;100265.50;;;1.40;53.15
40155;BME280;25875;48.202;16.334;2023-02-28T08:39:11;100217.72;;;1.15;53.09
40155;BME280;25875;48.202;16.334;2023-02-28T08:41:41;100228.97;;;1.34;52.94
40155;BME280;25875;48.202;16.334;2023-02-28T08:44:10;100268.91;;;1.68;52.82
40155;BME280;25875;48.202;16.334;2023-02-28T08:46:37;100266.22;;;1.81;52.73
40155;BME280;25875;48.202;16.334;2023-02-28T08:49:04;100222.78;;;1.64;52.42
40155;BME280;25875;48.202;16.334;2023-02-28T08:51:32;100205.31;;;1.70;52.17
40155;BME280;25875;48.202;16.334;2023-02-28T08:54:01;100265.97;;;2.22;51.87
40155;BME280;25875;48.202;16.334;2023-02-28T08:56:28;100264.91;;;2.48;51.66
40155;BME280;25875;48.202;16.334;2023-02-28T08:58:57;100262.97;;;2.71;51.22
40155;BME280;25875;48.202;16.334;2023-02-28T09:01:26;100267.09;;;2.97;50.91
40155;BME280;25875;48.202;16.334;2023-02-28T09:03:54;100257.31;;;3.14;50.38
40155;BME280;25875;48.202;16.334;2023-02-28T09:06:23;100259.72;;;3.34;50.14
40155;BME280;25875;48.202;16.334;2023-02-28T09:08:50;100255.09;;;3.56;49.87
40155;BME280;25875;48.202;16.334;2023-02-28T09:11:17;100132.72;;;2.95;49.55
40155;BME280;25875;48.202;16.334;2023-02-28T09:13:45;100256.28;;;3.98;49.56
40155;BME280;25875;48.202;16.334;2023-02-28T09:16:15;100248.13;;;4.16;49.13
40155;BME280;25875;48.202;16.334;2023-02-28T09:18:43;100253.19;;;4.31;48.88
40155;BME280;25875;48.202;16.334;2023-02-28T09:21:12;100251.25;;;4.44;48.35
40155;BME280;25875;48.202;16.334;2023-02-28T09:23:40;100251.97;;;4.54;48.44
40155;BME280;25875;48.202;16.334;2023-02-28T09:26:07;100134.75;;;3.97;48.55
40155;BME280;25875;48.202;16.334;2023-02-28T09:28:34;100211.47;;;4.67;48.28
40155;BME280;25875;48.202;16.334;2023-02-28T09:31:01;100247.97;;;4.82;48.02
40155;BME280;25875;48.202;16.334;2023-02-28T09:33:31;100247.31;;;4.69;48.10
40155;BME280;25875;48.202;16.334;2023-02-28T09:36:01;100256.09;;;4.68;48.40
40155;BME280;25875;48.202;16.334;2023-02-28T09:38:29;100194.69;;;4.25;48.14
40155;BME280;25875;48.202;16.334;2023-02-28T09:40:58;100259.00;;;4.52;48.65
40155;BME280;25875;48.202;16.334;2023-02-28T09:43:28;100257.25;;;4.51;48.80
40155;BME280;25875;48.202;16.334;2023-02-28T09:46:01;100259.81;;;4.55;48.21
40155;BME280;25875;48.202;16.334;2023-02-28T09:48:32;100258.16;;;4.48;48.64
40155;BME280;25875;48.202;16.334;2023-02-28T09:51:04;100252.88;;;4.51;48.65
40155;BME280;25875;48.202;16.334;2023-02-28T09:53:33;100267.59;;;4.60;48.04
40155;BME280;25875;48.202;16.334;2023-02-28T09:56:04;100271.16;;;4.56;48.42
40155;BME280;25875;48.202;16.334;2023-02-28T09:58:38;100169.78;;;3.93;48.29
40155;BME280;25875;48.202;16.334;2023-02-28T10:01:12;100152.28;;;3.95;48.14
40155;BME280;25875;48.202;16.334;2023-02-28T10:03:50;100205.00;;;4.35;47.93
40155;BME280;25875;48.202;16.334;2023-02-28T10:06:26;100229.75;;;4.73;47.67
40155;BME280;25875;48.202;16.334;2023-02-28T10:08:58;100264.28;;;5.02;47.74
40155;BME280;25875;48.202;16.334;2023-02-28T10:11:28;100262.75;;;4.88;47.85
40155;BME280;25875;48.202;16.334;2023-02-28T10:14:00;100265.53;;;4.78;47.57
40155;BME280;25875;48.202;16.334;2023-02-28T10:16:31;100265.63;;;4.72;47.16
40155;BME280;25875;48.202;16.334;2023-02-28T10:19:04;100263.81;;;4.77;48.10
40155;BME280;25875;48.202;16.334;2023-02-28T10:21:35;100184.81;;;4.40;48.17
40155;BME280;25875;48.202;16.334;2023-02-28T10:24:11;100221.19;;;4.62;48.23
40155;BME280;25875;48.202;16.334;2023-02-28T10:26:43;100257.47;;;4.91;48.17
40155;BME280;25875;48.202;16.334;2023-02-28T10:29:13;100257.25;;;5.03;48.08
40155;BME280;25875;48.202;16.334;2023-02-28T10:31:41;100218.09;;;4.88;47.86
40155;BME280;25875;48.202;16.334;2023-02-28T10:34:13;100151.88;;;4.70;47.50
40155;BME280;25875;48.202;16.334;2023-02-28T10:36:41;100246.78;;;5.46;47.38
40155;BME280;25875;48.202;16.334;2023-02-28T10:39:37;100240.47;;;5.55;46.20
40155;BME280;25875;48.202;16.334;2023-02-28T10:42:19;100237.63;;;5.65;46.21
40155;BME280;25875;48.202;16.334;2023-02-28T10:44:47;100236.47;;;5.78;46.92
40155;BME280;25875;48.202;16.334;2023-02-28T10:47:19;100229.84;;;5.99;46.74
40155;BME280;25875;48.202;16.334;2023-02-28T10:49:49;100220.66;;;6.17;46.31
40155;BME280;25875;48.202;16.334;2023-02-28T10:52:33;100221.28;;;6.28;45.08
40155;BME280;25875;48.202;16.334;2023-02-28T10:55:20;100145.19;;;5.82;44.36
40155;BME280;25875;48.202;16.334;2023-02-28T10:57:49;100214.78;;;6.43;45.69
40155;BME280;25875;48.202;16.334;2023-02-28T11:00:20;100140.28;;;6.04;44.83
40155;BME280;25875;48.202;16.334;2023-02-28T11:02:48;100219.66;;;6.58;45.44
40155;BME280;25875;48.202;16.334;2023-02-28T11:05:28;100198.50;;;6.61;43.66
40155;BME280;25875;48.202;16.334;2023-02-28T11:07:57;100205.34;;;6.68;44.97
40155;BME280;25875;48.202;16.334;2023-02-28T11:10:29;100206.72;;;6.85;44.74
40155;BME280;25875;48.202;16.334;2023-02-28T11:12:58;100194.53;;;6.81;44.72
40155;BME280;25875;48.202;16.334;2023-02-28T11:15:27;100196.53;;;6.69;45.03
40155;BME280;25875;48.202;16.334;2023-02-28T11:17:56;100191.91;;;6.79;44.90
40155;BME280;25875;48.202;16.334;2023-02-28T11:20:28;100200.47;;;6.89;43.93
40155;BME280;25875;48.202;16.334;2023-02-28T11:22:57;100201.44;;;6.85;44.61
40155;BME280;25875;48.202;16.334;2023-02-28T11:25:25;100186.59;;;6.82;44.61
40155;BME280;25875;48.202;16.334;2023-02-28T11:27:54;100176.28;;;6.71;44.68
40155;BME280;25875;48.202;16.334;2023-02-28T11:30:26;100097.66;;;6.24;44.57
40155;BME280;25875;48.202;16.334;2023-02-28T11:32:53;100180.88;;;6.65;44.47
40155;BME280;25875;48.202;16.334;2023-02-28T11:35:24;100166.66;;;6.70;44.21
40155;BME280;25875;48.202;16.334;2023-02-28T11:37:56;100174.28;;;6.83;42.60
40155;BME280;25875;48.202;16.334;2023-02-28T11:40:31;100163.31;;;6.98;43.99
40155;BME280;25875;48.202;16.334;2023-02-28T11:43:19;100179.56;;;7.14;42.27
40155;BME280;25875;48.202;16.334;2023-02-28T11:46:02;100162.56;;;7.24;42.10
40155;BME280;25875;48.202;16.334;2023-02-28T11:48:40;100076.66;;;6.87;42.59
40155;BME280;25875;48.202;16.334;2023-02-28T11:51:15;100149.81;;;7.41;40.46
40155;BME280;25875;48.202;16.334;2023-02-28T11:54:17;100153.75;;;7.25;40.75
40155;BME280;25875;48.202;16.334;2023-02-28T11:57:00;100139.94;;;7.17;42.13
40155;BME280;25875;48.202;16.334;2023-02-28T11:59:46;100162.44;;;7.28;41.08
40155;BME280;25875;48.202;16.334;2023-02-28T12:02:23;100158.91;;;7.29;41.49
40155;BME280;25875;48.202;16.334;2023-02-28T12:05:01;100155.41;;;7.29;41.93
40155;BME280;25875;48.202;16.334;2023-02-28T12:07:45;99884.00;;;5.78;41.31
40155;BME280;25875;48.202;16.334;2023-02-28T12:10:21;100150.44;;;7.49;41.44
40155;BME280;25875;48.202;16.334;2023-02-28T12:12:57;100105.00;;;7.40;41.42
40155;BME280;25875;48.202;16.334;2023-02-28T12:15:50;100142.44;;;7.52;40.06
40155;BME280;25875;48.202;16.334;2023-02-28T12:18:56;100138.06;;;7.51;40.02
40155;BME280;25875;48.202;16.334;2023-02-28T12:21:38;100111.41;;;7.31;40.62
40155;BME280;25875;48.202;16.334;2023-02-28T12:24:23;100136.56;;;7.43;40.51
40155;BME280;25875;48.202;16.334;2023-02-28T12:26:58;100132.38;;;7.35;41.17
40155;BME280;25875;48.202;16.334;2023-02-28T12:29:29;100129.53;;;7.12;42.07
40155;BME280;25875;48.202;16.334;2023-02-28T12:32:03;99906.25;;;5.65;40.93
40155;BME280;25875;48.202;16.334;2023-02-28T12:34:32;100127.97;;;6.72;42.21
40155;BME280;25875;48.202;16.334;2023-02-28T12:37:05;100117.41;;;6.74;43.67
40155;BME280;25875;48.202;16.334;2023-02-28T12:39:39;100127.50;;;6.91;43.33
40155;BME280;25875;48.202;16.334;2023-02-28T12:42:13;100123.22;;;6.87;42.29
40155;BME280;25875;48.202;16.334;2023-02-28T12:44:47;100127.63;;;6.86;42.63
40155;BME280;25875;48.202;16.334;2023-02-28T12:47:17;100059.13;;;6.54;43.41
40155;BME280;25875;48.202;16.334;2023-02-28T12:49:54;100019.97;;;6.41;42.96
40155;BME280;25875;48.202;16.334;2023-02-28T12:52:31;100115.06;;;6.96;41.79
40155;BME280;25875;48.202;16.334;2023-02-28T12:55:05;100040.00;;;6.47;41.76
40155;BME280;25875;48.202;16.334;2023-02-28T12:57:40;100088.72;;;6.63;41.52
40155;BME280;25875;48.202;16.334;2023-02-28T13:00:13;100046.25;;;6.43;42.06
40155;BME280;25875;48.202;16.334;2023-02-28T13:06:08;100121.22;;;6.62;40.77
40155;BME280;25875;48.202;16.334;2023-02-28T13:09:02;100115.28;;;6.54;41.06
40155;BME280;25875;48.202;16.334;2023-02-28T13:11:32;100121.47;;;6.53;42.12